createdAt,value
2023-02-01T00:02:53.864Z,64.72
2023-02-01T00:06:00.014Z,65.04
2023-02-01T00:09:03.480Z,65.66
2023-02-01T00:12:06.313Z,64.96
2023-02-01T00:15:09.699Z,64.89
2023-02-01T00:18:12.067Z,64.56
2023-02-01T00:21:17.720Z,65.20
2023-02-01T00:24:20.151Z,64.98
2023-02-01T00:27:22.747Z,65.23
2023-02-01T00:30:25.157Z,64.77
2023-02-01T00:33:28.777Z,64.69
2023-02-01T00:36:31.149Z,64.95
2023-02-01T00:39:33.402Z,64.82
2023-02-01T00:42:35.976Z,64.93
2023-02-01T00:45:38.093Z,64.24
2023-02-01T00:48:41.066Z,64.50
2023-02-01T00:51:43.080Z,65.00
2023-02-01T00:54:45.091Z,64.15
2023-02-01T00:57:47.467Z,64.34
2023-02-01T01:00:50.785Z,64.26
2023-02-01T01:03:56.670Z,63.62
2023-02-01T01:06:59.077Z,63.75
2023-02-01T01:10:01.944Z,63.56
2023-02-01T01:13:04.056Z,63.31
2023-02-01T01:16:08.369Z,63.48
2023-02-01T01:19:10.667Z,63.60
2023-02-01T01:22:12.674Z,63.41
2023-02-01T01:25:15.278Z,63.66
2023-02-01T01:28:18.568Z,63.47
2023-02-01T01:31:22.163Z,63.86
2023-02-01T01:34:24.636Z,63.86
2023-02-01T01:37:26.837Z,64.45
2023-02-01T01:40:30.219Z,64.37
2023-02-01T01:44:06.337Z,64.72
2023-02-01T01:47:09.775Z,65.18
2023-02-01T01:50:18.269Z,65.32
2023-02-01T01:53:26.214Z,65.33
2023-02-01T01:56:30.707Z,65.80
2023-02-01T01:59:36.973Z,66.29
2023-02-01T02:02:42.192Z,66.10
2023-02-01T02:05:45.249Z,66.24
2023-02-01T02:08:47.596Z,66.17
2023-02-01T02:11:49.741Z,66.26
2023-02-01T02:14:53.421Z,66.57
2023-02-01T02:18:17.382Z,66.30
2023-02-01T02:21:31.852Z,66.40
2023-02-01T02:25:07.602Z,66.69
2023-02-01T02:28:41.471Z,66.57
2023-02-01T02:32:14.857Z,67.01
2023-02-01T02:35:54.632Z,67.02
2023-02-01T02:39:24.459Z,67.50
2023-02-01T02:43:15.979Z,67.96
2023-02-01T02:46:52.925Z,67.71
2023-02-01T02:50:31.327Z,67.89
2023-02-01T02:54:03.762Z,68.17
2023-02-01T02:57:28.972Z,67.83
2023-02-01T03:00:54.340Z,67.38
2023-02-01T03:04:15.705Z,67.68
2023-02-01T03:07:49.008Z,68.05
2023-02-01T03:11:06.621Z,68.34
2023-02-01T03:14:09.908Z,68.56
2023-02-01T03:17:20.437Z,68.46
2023-02-01T03:20:25.186Z,67.72
2023-02-01T03:23:32.156Z,67.98
2023-02-01T03:26:40.014Z,67.43
2023-02-01T03:30:07.237Z,67.35
2023-02-01T03:33:23.015Z,67.32
2023-02-01T03:36:32.546Z,67.27
2023-02-01T03:39:59.464Z,66.66
2023-02-01T03:43:06.370Z,66.52
2023-02-01T03:46:13.813Z,67.15
2023-02-01T03:49:24.718Z,65.88
2023-02-01T03:52:33.673Z,65.44
2023-02-01T03:55:39.584Z,64.89
2023-02-01T03:58:41.758Z,64.62
2023-02-01T04:01:44.094Z,65.08
2023-02-01T04:04:46.773Z,64.49
2023-02-01T04:07:51.781Z,64.63
2023-02-01T04:10:53.833Z,64.78
2023-02-01T04:13:56.222Z,65.00
2023-02-01T04:16:58.572Z,65.57
2023-02-01T04:20:00.810Z,65.63
2023-02-01T04:23:03.924Z,65.73
2023-02-01T04:26:06.979Z,65.78
2023-02-01T04:29:11.379Z,65.46
2023-02-01T04:32:13.485Z,65.30
2023-02-01T04:35:15.531Z,65.99
2023-02-01T04:38:17.947Z,66.27
2023-02-01T04:41:22.197Z,66.14
2023-02-01T04:44:24.887Z,65.81
2023-02-01T04:47:28.450Z,65.46
2023-02-01T04:50:31.066Z,65.19
2023-02-01T04:53:33.817Z,65.64
2023-02-01T04:56:36.233Z,66.02
2023-02-01T04:59:39.034Z,65.96
2023-02-01T05:02:41.444Z,66.55
2023-02-01T05:05:43.499Z,66.75
2023-02-01T05:08:46.062Z,66.87
2023-02-01T05:12:06.743Z,66.97
2023-02-01T05:15:09.100Z,66.61
2023-02-01T05:18:12.041Z,66.37
2023-02-01T05:21:14.275Z,66.77
2023-02-01T05:24:21.018Z,66.55
2023-02-01T05:27:23.808Z,66.87
2023-02-01T05:30:26.033Z,66.23
2023-02-01T05:33:28.088Z,66.54
2023-02-01T05:36:30.182Z,66.21
2023-02-01T05:39:32.403Z,66.23
2023-02-01T05:42:34.852Z,65.92
2023-02-01T05:45:36.930Z,65.88
2023-02-01T05:48:39.473Z,66.27
2023-02-01T05:51:41.550Z,66.14
2023-02-01T05:54:43.595Z,66.52
2023-02-01T05:57:45.849Z,66.02
2023-02-01T06:00:47.895Z,66.00
2023-02-01T06:03:50.124Z,65.57
2023-02-01T06:06:52.227Z,65.87
2023-02-01T06:09:54.246Z,66.08
2023-02-01T06:12:56.339Z,65.62
2023-02-01T06:15:58.434Z,65.86
2023-02-01T06:19:01.558Z,65.61
2023-02-01T06:22:07.957Z,65.86
2023-02-01T06:25:11.900Z,65.31
2023-02-01T06:28:14.324Z,65.11
2023-02-01T06:31:16.553Z,65.02
2023-02-01T06:34:22.040Z,65.11
2023-02-01T06:37:26.301Z,65.06
2023-02-01T06:40:28.331Z,65.20
2023-02-01T06:43:31.185Z,64.88
2023-02-01T06:46:33.514Z,65.07
2023-02-01T06:49:35.515Z,64.96
2023-02-01T06:52:37.850Z,65.59
2023-02-01T06:55:39.941Z,65.54
2023-02-01T06:58:42.018Z,66.55
2023-02-01T07:01:44.332Z,66.80
2023-02-01T07:04:46.438Z,67.20
2023-02-01T07:07:48.706Z,67.64
2023-02-01T07:10:50.790Z,66.84
2023-02-01T07:13:53.651Z,66.10
2023-02-01T07:16:55.706Z,66.17
2023-02-01T07:19:59.851Z,64.84
2023-02-01T07:23:02.097Z,64.85
2023-02-01T07:26:06.691Z,65.23
2023-02-01T07:29:08.901Z,65.16
2023-02-01T07:32:11.365Z,64.42
2023-02-01T07:35:15.252Z,63.98
2023-02-01T07:38:18.533Z,64.40
2023-02-01T07:41:20.524Z,64.79
2023-02-01T07:44:24.385Z,63.84
2023-02-01T07:47:26.657Z,63.65
2023-02-01T07:50:28.827Z,63.36
2023-02-01T07:53:32.660Z,64.23
2023-02-01T07:56:34.883Z,64.11
2023-02-01T07:59:36.982Z,63.59
2023-02-01T08:02:39.021Z,63.74
2023-02-01T08:05:41.168Z,64.05
2023-02-01T08:08:46.286Z,63.73
2023-02-01T08:11:49.040Z,64.19
2023-02-01T08:14:51.155Z,63.09
2023-02-01T08:17:53.327Z,61.84
2023-02-01T08:20:55.621Z,61.89
2023-02-01T08:23:58.879Z,62.74
2023-02-01T08:27:03.542Z,63.35
2023-02-01T08:30:08.467Z,61.47
2023-02-01T08:33:11.257Z,61.23
2023-02-01T08:36:13.663Z,60.48
2023-02-01T08:39:16.140Z,60.75
2023-02-01T08:42:37.828Z,60.51
2023-02-01T08:45:41.278Z,60.71
2023-02-01T08:48:43.476Z,60.24
2023-02-01T08:51:45.502Z,59.40
2023-02-01T08:54:47.656Z,59.21
2023-02-01T08:57:49.997Z,59.36
2023-02-01T09:00:52.229Z,59.14
2023-02-01T09:03:54.285Z,59.15
2023-02-01T09:06:59.060Z,59.88
2023-02-01T09:10:02.192Z,60.04
2023-02-01T09:13:04.453Z,59.34
2023-02-01T09:16:06.690Z,59.96
2023-02-01T09:19:24.762Z,59.58
2023-02-01T09:22:27.354Z,59.12
2023-02-01T09:25:29.540Z,59.45
2023-02-01T09:28:32.251Z,59.29
2023-02-01T09:31:34.578Z,60.16
2023-02-01T09:34:36.835Z,60.62
2023-02-01T09:37:39.371Z,60.99
2023-02-01T09:40:47.241Z,61.52
2023-02-01T09:43:52.529Z,61.58
2023-02-01T09:47:00.769Z,61.65
2023-02-01T09:50:15.736Z,61.62
2023-02-01T09:53:38.407Z,62.09
2023-02-01T09:56:42.832Z,62.58
2023-02-01T09:59:50.723Z,63.97
2023-02-01T10:02:56.489Z,65.14
2023-02-01T10:06:29.441Z,65.15
2023-02-01T10:09:41.308Z,65.98
2023-02-01T10:12:52.948Z,64.91
2023-02-01T10:16:16.550Z,63.25
2023-02-01T10:19:40.615Z,61.93
2023-02-01T10:23:15.992Z,60.00
2023-02-01T10:26:24.203Z,59.16
2023-02-01T10:29:32.255Z,57.77
2023-02-01T10:32:36.034Z,56.04
2023-02-01T10:35:39.874Z,54.99
2023-02-01T10:38:42.067Z,56.37
2023-02-01T10:41:44.282Z,57.12
2023-02-01T10:44:49.100Z,57.62
2023-02-01T10:47:53.541Z,58.96
2023-02-01T10:51:07.202Z,58.11
2023-02-01T10:54:21.742Z,58.83
2023-02-01T10:57:29.483Z,60.30
2023-02-01T11:00:44.461Z,59.56
2023-02-01T11:03:53.829Z,60.20
2023-02-01T11:07:17.857Z,60.71
2023-02-01T11:10:41.635Z,60.91
2023-02-01T11:13:44.185Z,61.97
2023-02-01T11:16:53.626Z,62.13
2023-02-01T11:20:04.601Z,62.27
2023-02-01T11:23:12.903Z,62.77
2023-02-01T11:26:20.963Z,63.30
2023-02-01T11:29:30.905Z,63.52
2023-02-01T11:32:33.134Z,64.10
2023-02-01T11:35:41.156Z,64.88
2023-02-01T11:38:53.290Z,65.38
2023-02-01T11:42:13.962Z,66.23
2023-02-01T11:45:31.065Z,66.90
2023-02-01T11:48:35.064Z,67.22
2023-02-01T11:51:37.230Z,68.37
2023-02-01T11:55:08.467Z,67.87
2023-02-01T11:58:11.046Z,69.25
2023-02-01T12:01:48.515Z,68.63
2023-02-01T12:05:12.259Z,68.63
2023-02-01T12:08:36.177Z,69.03
2023-02-01T12:12:00.076Z,69.54
2023-02-01T12:15:30.413Z,70.06
2023-02-01T12:18:49.647Z,68.75
2023-02-01T12:22:03.807Z,69.14
2023-02-01T12:25:40.959Z,69.13
2023-02-01T12:29:11.069Z,68.21
2023-02-01T12:32:22.127Z,68.87
2023-02-01T12:35:56.350Z,68.56
2023-02-01T12:39:12.704Z,68.26
2023-02-01T12:42:30.476Z,67.38
2023-02-01T12:45:43.145Z,67.84
2023-02-01T12:49:00.552Z,67.22
2023-02-01T12:52:09.218Z,67.73
2023-02-01T12:55:26.168Z,67.08
2023-02-01T12:58:53.731Z,66.49
2023-02-01T13:02:02.770Z,67.75
2023-02-01T13:05:14.312Z,66.01
2023-02-01T13:08:23.899Z,67.20
2023-02-01T13:11:40.809Z,66.31
2023-02-01T13:14:49.090Z,65.88
2023-02-01T13:17:54.845Z,65.11
2023-02-01T13:20:59.932Z,65.55
2023-02-01T13:24:03.642Z,65.12
2023-02-01T13:27:06.691Z,64.81
2023-02-01T13:30:21.240Z,63.37
2023-02-01T13:34:04.380Z,63.54
2023-02-01T13:37:16.004Z,63.70
2023-02-01T13:40:43.708Z,63.71
2023-02-01T13:43:51.892Z,64.01
2023-02-01T13:47:03.682Z,63.76
2023-02-01T13:50:35.301Z,64.66
2023-02-01T13:53:39.056Z,63.81
2023-02-01T13:56:43.561Z,63.55
2023-02-01T13:59:45.560Z,63.99
2023-02-01T14:02:50.772Z,63.69
2023-02-01T14:05:52.824Z,63.30
2023-02-01T14:09:25.821Z,63.20
2023-02-01T14:12:50.495Z,61.35
2023-02-01T14:16:04.914Z,61.72
2023-02-01T14:19:30.639Z,62.06
2023-02-01T14:22:35.816Z,63.45
2023-02-01T14:25:39.053Z,63.48
2023-02-01T14:28:55.532Z,63.25
2023-02-01T14:32:21.027Z,63.80
2023-02-01T14:35:27.282Z,64.00
2023-02-01T14:38:32.575Z,64.40
2023-02-01T14:41:36.090Z,64.88
2023-02-01T14:44:38.827Z,65.45
2023-02-01T14:47:40.906Z,65.75
2023-02-01T14:50:46.068Z,66.73
2023-02-01T14:53:48.951Z,66.77
2023-02-01T14:56:52.449Z,68.13
2023-02-01T15:00:29.509Z,67.84
2023-02-01T15:03:38.316Z,67.89
2023-02-01T15:06:49.987Z,68.41
2023-02-01T15:09:53.700Z,68.37
2023-02-01T15:12:55.877Z,68.18
2023-02-01T15:16:13.334Z,68.05
2023-02-01T15:19:15.774Z,67.81
2023-02-01T15:22:20.407Z,67.48
2023-02-01T15:25:26.855Z,67.19
2023-02-01T15:28:29.179Z,66.17
2023-02-01T15:31:44.315Z,65.54
2023-02-01T15:34:49.242Z,64.91
2023-02-01T15:37:52.938Z,64.91
2023-02-01T15:41:11.480Z,63.85
2023-02-01T15:44:44.160Z,64.20
2023-02-01T15:47:49.891Z,64.30
2023-02-01T15:50:53.568Z,64.26
2023-02-01T15:54:09.289Z,63.36
2023-02-01T15:57:11.998Z,63.97
2023-02-01T16:00:41.254Z,63.35
2023-02-01T16:03:49.674Z,62.25
2023-02-01T16:07:02.202Z,62.78
2023-02-01T16:10:28.124Z,63.25
2023-02-01T16:13:30.127Z,62.90
2023-02-01T16:16:32.520Z,62.98
2023-02-01T16:19:34.925Z,62.67
2023-02-01T16:22:37.101Z,62.61
2023-02-01T16:25:40.371Z,63.19
2023-02-01T16:28:42.975Z,62.86
2023-02-01T16:31:46.208Z,62.96
2023-02-01T16:34:49.320Z,62.89
2023-02-01T16:37:52.083Z,62.76
2023-02-01T16:40:54.742Z,62.99
2023-02-01T16:43:58.305Z,62.79
2023-02-01T16:47:00.503Z,63.00
2023-02-01T16:50:08.379Z,63.06
2023-02-01T16:53:18.424Z,63.91
2023-02-01T16:56:30.975Z,63.40
2023-02-01T16:59:33.636Z,63.68
2023-02-01T17:02:36.266Z,64.03
2023-02-01T17:05:38.556Z,64.28
2023-02-01T17:08:45.753Z,63.99
2023-02-01T17:11:48.046Z,64.81
2023-02-01T17:14:51.704Z,66.28
2023-02-01T17:18:01.226Z,66.18
2023-02-01T17:21:06.027Z,66.11
2023-02-01T17:24:10.900Z,67.31
2023-02-01T17:27:14.438Z,67.30
2023-02-01T17:30:17.217Z,66.78
2023-02-01T17:33:35.762Z,66.68
2023-02-01T17:36:45.424Z,67.33
2023-02-01T17:39:58.649Z,66.12
2023-02-01T17:43:01.440Z,65.79
2023-02-01T17:46:13.656Z,66.34
2023-02-01T17:49:16.806Z,66.61
2023-02-01T17:52:22.464Z,66.21
2023-02-01T17:55:27.315Z,66.74
2023-02-01T17:58:33.871Z,66.49
2023-02-01T18:01:36.948Z,65.34
2023-02-01T18:04:39.719Z,65.21
2023-02-01T18:07:42.620Z,65.90
2023-02-01T18:10:45.558Z,65.78
2023-02-01T18:13:54.247Z,64.74
2023-02-01T18:16:57.844Z,63.69
2023-02-01T18:20:01.323Z,64.76
2023-02-01T18:23:07.724Z,63.76
2023-02-01T18:26:15.205Z,63.45
2023-02-01T18:29:18.778Z,63.44
2023-02-01T18:32:22.567Z,62.81
2023-02-01T18:35:29.548Z,62.57
2023-02-01T18:38:34.482Z,62.26
2023-02-01T18:41:37.779Z,62.46
2023-02-01T18:44:41.119Z,62.81
2023-02-01T18:47:44.766Z,62.46
2023-02-01T18:50:48.432Z,62.62
2023-02-01T18:53:52.536Z,62.13
2023-02-01T18:56:56.994Z,62.99
2023-02-01T19:00:00.196Z,63.15
2023-02-01T19:03:03.462Z,63.07
2023-02-01T19:06:07.470Z,65.95
2023-02-01T19:09:10.602Z,65.00
2023-02-01T19:12:13.744Z,65.62
2023-02-01T19:15:18.999Z,67.54
2023-02-01T19:18:22.209Z,68.06
2023-02-01T19:21:31.339Z,69.25
2023-02-01T19:24:34.980Z,69.75
2023-02-01T19:27:38.372Z,70.02
2023-02-01T19:30:41.611Z,70.33
2023-02-01T19:33:44.786Z,71.80
2023-02-01T19:36:48.941Z,70.11
2023-02-01T19:39:52.641Z,69.31
2023-02-01T19:42:59.756Z,70.26
2023-02-01T19:46:03.383Z,68.33
2023-02-01T19:49:08.552Z,68.61
2023-02-01T19:52:11.596Z,67.42
2023-02-01T19:55:15.174Z,66.82
2023-02-01T19:58:18.517Z,66.43
2023-02-01T20:01:20.699Z,65.01
2023-02-01T20:04:24.391Z,65.41
2023-02-01T20:07:27.084Z,64.14
2023-02-01T20:10:31.862Z,64.51
2023-02-01T20:13:36.470Z,64.40
2023-02-01T20:16:40.936Z,63.19
2023-02-01T20:19:45.553Z,63.53
2023-02-01T20:22:48.111Z,63.30
2023-02-01T20:25:51.784Z,62.94
2023-02-01T20:28:56.715Z,62.80
2023-02-01T20:32:00.552Z,62.80
2023-02-01T20:35:04.240Z,62.25
2023-02-01T20:38:08.512Z,63.10
2023-02-01T20:41:11.827Z,61.71
2023-02-01T20:44:14.846Z,61.71
2023-02-01T20:47:17.958Z,61.62
2023-02-01T20:50:21.882Z,61.51
2023-02-01T20:53:26.814Z,61.05
2023-02-01T20:56:30.014Z,61.13
2023-02-01T20:59:33.898Z,60.49
2023-02-01T21:02:37.676Z,59.89
2023-02-01T21:05:41.726Z,60.10
2023-02-01T21:08:44.503Z,59.47
2023-02-01T21:11:46.862Z,59.09
2023-02-01T21:14:50.236Z,58.43
2023-02-01T21:17:53.159Z,58.09
2023-02-01T21:20:58.749Z,58.23
2023-02-01T21:24:02.597Z,58.19
2023-02-01T21:27:04.870Z,57.84
2023-02-01T21:30:08.395Z,58.08
2023-02-01T21:33:10.651Z,57.60
2023-02-01T21:36:23.369Z,58.16
2023-02-01T21:39:27.710Z,58.39
2023-02-01T21:42:31.250Z,56.97
2023-02-01T21:45:33.671Z,58.23
2023-02-01T21:49:04.050Z,58.60
2023-02-01T21:51:59.012Z,60.18
2023-02-01T21:55:01.378Z,60.19
2023-02-01T21:58:03.555Z,60.97
2023-02-01T22:01:06.561Z,61.14
2023-02-01T22:04:10.438Z,61.43
2023-02-01T22:07:12.813Z,60.85
2023-02-01T22:10:14.794Z,61.09
2023-02-01T22:13:16.849Z,61.02
2023-02-01T22:16:21.652Z,61.06
2023-02-01T22:19:23.764Z,62.28
2023-02-01T22:22:25.905Z,61.51
2023-02-01T22:25:28.956Z,62.12
2023-02-01T22:28:33.769Z,62.21
2023-02-01T22:31:36.574Z,62.44
2023-02-01T22:34:39.374Z,61.95
2023-02-01T22:37:41.647Z,62.69
2023-02-01T22:40:44.402Z,62.98
2023-02-01T22:43:47.612Z,61.92
2023-02-01T22:46:50.248Z,62.06
2023-02-01T22:49:52.390Z,60.86
2023-02-01T22:52:54.568Z,61.47
2023-02-01T22:56:08.062Z,61.33
2023-02-01T22:59:12.810Z,62.44
2023-02-01T23:02:15.046Z,61.80
2023-02-01T23:05:17.260Z,61.55
2023-02-01T23:08:19.315Z,63.34
2023-02-01T23:11:22.639Z,64.67
2023-02-01T23:14:24.842Z,65.92
2023-02-01T23:17:26.908Z,65.43
2023-02-01T23:20:29.013Z,65.93
2023-02-01T23:23:30.944Z,67.04
2023-02-01T23:26:34.039Z,66.51
2023-02-01T23:29:36.286Z,65.62
2023-02-01T23:32:38.453Z,65.85
2023-02-01T23:35:40.650Z,65.12
2023-02-01T23:38:46.050Z,65.61
2023-02-01T23:41:48.067Z,66.55
2023-02-01T23:44:50.018Z,67.05
2023-02-01T23:47:52.025Z,67.84
2023-02-01T23:50:54.595Z,69.73
2023-02-01T23:53:57.428Z,70.13
2023-02-01T23:56:59.656Z,70.69
